createdAt,value
2023-09-27T00:01:14.883Z,14.70
2023-09-27T00:03:43.873Z,14.70
2023-09-27T00:06:10.773Z,14.70
2023-09-27T00:08:37.720Z,14.70
2023-09-27T00:11:05.296Z,14.80
2023-09-27T00:13:32.822Z,14.90
2023-09-27T00:15:59.771Z,14.80
2023-09-27T00:18:26.844Z,14.80
2023-09-27T00:20:53.681Z,14.50
2023-09-27T00:23:20.425Z,14.40
2023-09-27T00:25:47.438Z,14.40
2023-09-27T00:28:14.255Z,14.40
2023-09-27T00:30:41.249Z,14.30
2023-09-27T00:33:08.503Z,14.30
2023-09-27T00:35:35.562Z,14.20
2023-09-27T00:38:02.727Z,14.10
2023-09-27T00:40:29.784Z,14.10
2023-09-27T00:42:56.588Z,14.00
2023-09-27T00:45:23.380Z,14.10
2023-09-27T00:47:52.391Z,14.10
2023-09-27T00:50:19.657Z,14.20
2023-09-27T00:52:49.028Z,14.20
2023-09-27T00:55:21.270Z,14.10
2023-09-27T00:57:50.276Z,14.00
2023-09-27T01:00:17.695Z,13.90
2023-09-27T01:02:45.539Z,14.10
2023-09-27T01:05:12.931Z,14.00
2023-09-27T01:07:41.628Z,13.90
2023-09-27T01:10:10.336Z,13.90
2023-09-27T01:12:40.228Z,13.90
2023-09-27T01:15:07.932Z,14.00
2023-09-27T01:17:37.119Z,13.90
2023-09-27T01:20:05.638Z,13.80
2023-09-27T01:22:32.501Z,13.80
2023-09-27T01:25:02.969Z,13.70
2023-09-27T01:27:30.400Z,13.50
2023-09-27T01:29:57.599Z,13.50
2023-09-27T01:32:24.640Z,13.50
2023-09-27T01:34:51.512Z,13.50
2023-09-27T01:37:18.510Z,13.50
2023-09-27T01:39:46.545Z,13.50
2023-09-27T01:42:13.314Z,13.50
2023-09-27T01:44:40.268Z,13.50
2023-09-27T01:47:07.162Z,13.40
2023-09-27T01:49:34.035Z,13.40
2023-09-27T01:52:01.360Z,13.30
2023-09-27T01:54:28.122Z,13.40
2023-09-27T01:56:54.966Z,13.40
2023-09-27T01:59:21.895Z,13.40
2023-09-27T02:01:48.849Z,13.40
2023-09-27T02:04:15.828Z,13.40
2023-09-27T02:06:42.863Z,12.90
2023-09-27T02:09:10.189Z,13.30
2023-09-27T02:11:37.535Z,13.20
2023-09-27T02:14:05.955Z,13.10
2023-09-27T02:16:34.372Z,13.10
2023-09-27T02:19:01.304Z,13.10
2023-09-27T02:21:28.365Z,13.10
2023-09-27T02:23:55.284Z,13.20
2023-09-27T02:26:22.574Z,13.00
2023-09-27T02:28:49.490Z,13.00
2023-09-27T02:31:16.296Z,13.00
2023-09-27T02:33:43.169Z,13.00
2023-09-27T02:36:10.089Z,12.90
2023-09-27T02:38:38.094Z,13.00
2023-09-27T02:41:05.579Z,13.00
2023-09-27T02:43:32.643Z,13.00
2023-09-27T02:45:59.601Z,12.90
2023-09-27T02:48:26.569Z,12.90
2023-09-27T02:57:23.333Z,12.90
2023-09-27T02:59:50.183Z,12.90
2023-09-27T03:02:17.569Z,12.90
2023-09-27T03:04:44.402Z,12.90
2023-09-27T03:07:13.647Z,12.90
2023-09-27T03:09:40.696Z,13.00
2023-09-27T03:12:07.911Z,13.00
2023-09-27T03:14:34.769Z,13.00
2023-09-27T03:17:02.686Z,12.90
2023-09-27T03:19:29.514Z,13.00
2023-09-27T03:21:56.299Z,13.00
2023-09-27T03:24:23.314Z,13.00
2023-09-27T03:26:50.174Z,12.90
2023-09-27T03:29:17.109Z,12.90
2023-09-27T03:31:44.191Z,12.90
2023-09-27T03:34:11.199Z,12.90
2023-09-27T03:36:37.944Z,12.80
2023-09-27T03:39:06.833Z,12.80
2023-09-27T03:41:34.897Z,12.80
2023-09-27T03:44:01.726Z,12.70
2023-09-27T03:46:31.061Z,12.60
2023-09-27T03:48:57.872Z,12.50
2023-09-27T03:51:28.444Z,12.50
2023-09-27T03:53:55.902Z,12.50
2023-09-27T03:56:24.000Z,12.60
2023-09-27T03:58:51.278Z,12.60
2023-09-27T04:01:18.483Z,12.50
2023-09-27T04:03:45.341Z,12.60
2023-09-27T04:06:12.173Z,12.70
2023-09-27T04:08:39.150Z,12.70
2023-09-27T04:11:07.727Z,12.60
2023-09-27T04:13:34.493Z,12.70
2023-09-27T04:16:02.160Z,12.60
2023-09-27T04:18:29.068Z,12.70
2023-09-27T04:20:55.788Z,12.60
2023-09-27T04:23:22.855Z,12.50
2023-09-27T04:25:49.861Z,12.50
2023-09-27T04:28:17.101Z,12.40
2023-09-27T04:30:44.064Z,12.40
2023-09-27T04:33:10.935Z,12.40
2023-09-27T04:35:38.030Z,12.50
2023-09-27T04:38:05.627Z,12.50
2023-09-27T04:40:32.643Z,12.40
2023-09-27T04:42:59.758Z,12.40
2023-09-27T04:45:26.992Z,12.30
2023-09-27T04:47:54.002Z,12.20
2023-09-27T04:50:20.924Z,12.30
2023-09-27T04:52:48.007Z,12.30
2023-09-27T04:55:16.102Z,12.30
2023-09-27T04:57:43.166Z,12.40
2023-09-27T05:00:20.021Z,12.40
2023-09-27T05:02:48.059Z,12.30
2023-09-27T05:05:15.480Z,12.20
2023-09-27T05:07:42.700Z,12.30
2023-09-27T05:10:10.098Z,12.20
2023-09-27T05:12:37.040Z,12.30
2023-09-27T05:15:04.186Z,12.50
2023-09-27T05:17:31.592Z,12.40
2023-09-27T05:19:59.154Z,12.40
2023-09-27T05:22:26.048Z,12.40
2023-09-27T05:24:53.048Z,12.40
2023-09-27T05:27:19.960Z,12.40
2023-09-27T05:29:47.683Z,12.30
2023-09-27T05:32:14.506Z,12.30
2023-09-27T05:34:41.497Z,12.30
2023-09-27T05:37:08.585Z,12.30
2023-09-27T05:39:35.374Z,12.30
2023-09-27T05:42:02.333Z,12.40
2023-09-27T05:44:29.125Z,12.50
2023-09-27T05:46:56.603Z,12.50
2023-09-27T05:49:23.759Z,12.50
2023-09-27T05:51:50.875Z,12.60
2023-09-27T05:54:20.394Z,12.70
2023-09-27T05:56:51.771Z,12.70
2023-09-27T05:59:19.221Z,12.70
2023-09-27T06:01:46.198Z,12.80
2023-09-27T06:04:13.138Z,12.90
2023-09-27T06:06:40.328Z,13.00
2023-09-27T06:09:07.157Z,13.10
2023-09-27T06:11:34.293Z,13.20
2023-09-27T06:14:01.131Z,13.30
2023-09-27T06:16:28.055Z,13.40
2023-09-27T06:18:55.037Z,13.50
2023-09-27T06:21:23.195Z,13.60
2023-09-27T06:23:49.920Z,15.90
2023-09-27T06:26:16.865Z,17.50
2023-09-27T06:28:43.601Z,20.10
2023-09-27T06:31:10.920Z,21.00
2023-09-27T06:33:40.793Z,21.90
2023-09-27T06:36:11.659Z,23.10
2023-09-27T06:38:39.014Z,19.20
2023-09-27T06:41:06.197Z,16.80
2023-09-27T06:43:33.374Z,16.20
2023-09-27T06:46:02.530Z,15.30
2023-09-27T06:48:30.536Z,15.20
2023-09-27T06:50:57.552Z,15.10
2023-09-27T06:53:27.529Z,15.10
2023-09-27T06:55:58.021Z,15.00
2023-09-27T06:58:25.972Z,14.80
2023-09-27T07:00:53.846Z,15.10
2023-09-27T07:03:26.563Z,15.40
2023-09-27T07:05:54.163Z,15.50
2023-09-27T07:08:22.057Z,15.70
2023-09-27T07:10:49.093Z,15.70
2023-09-27T07:13:16.217Z,15.80
2023-09-27T07:15:47.177Z,15.80
2023-09-27T07:18:14.602Z,15.90
2023-09-27T07:20:43.182Z,16.00
2023-09-27T07:23:16.290Z,16.20
2023-09-27T07:25:44.221Z,16.40
2023-09-27T07:28:11.582Z,16.50
2023-09-27T07:30:39.536Z,16.50
2023-09-27T07:33:12.892Z,16.60
2023-09-27T07:35:44.651Z,16.40
2023-09-27T07:38:12.458Z,16.30
2023-09-27T07:40:39.766Z,16.30
2023-09-27T07:43:06.853Z,16.60
2023-09-27T07:45:35.562Z,16.60
2023-09-27T07:48:02.554Z,16.80
2023-09-27T07:50:32.613Z,17.00
2023-09-27T07:53:00.479Z,17.00
2023-09-27T07:55:27.816Z,17.10
2023-09-27T07:57:55.626Z,17.40
2023-09-27T08:00:28.713Z,17.60
2023-09-27T08:02:59.745Z,17.80
2023-09-27T08:05:26.951Z,17.70
2023-09-27T08:07:53.856Z,17.80
2023-09-27T08:10:22.445Z,17.80
2023-09-27T08:12:49.650Z,17.70
2023-09-27T08:15:18.742Z,17.90
2023-09-27T08:17:47.657Z,17.90
2023-09-27T08:20:14.870Z,17.90
2023-09-27T08:22:42.159Z,17.90
2023-09-27T08:25:15.740Z,17.90
2023-09-27T08:27:43.737Z,17.90
2023-09-27T08:30:13.007Z,17.70
2023-09-27T08:32:40.585Z,17.80
2023-09-27T08:35:08.342Z,18.00
2023-09-27T08:37:35.624Z,18.10
2023-09-27T08:40:06.721Z,18.00
2023-09-27T08:42:35.497Z,18.00
2023-09-27T08:45:04.104Z,18.10
2023-09-27T08:47:31.993Z,18.00
2023-09-27T08:49:59.723Z,18.20
2023-09-27T08:52:29.275Z,18.20
2023-09-27T08:54:56.279Z,18.20
2023-09-27T08:57:29.172Z,18.40
2023-09-27T08:59:56.731Z,18.70
2023-09-27T09:02:25.420Z,18.50
2023-09-27T09:04:52.658Z,18.50
2023-09-27T09:07:20.027Z,18.60
2023-09-27T09:09:47.498Z,18.60
2023-09-27T09:12:14.683Z,18.50
2023-09-27T09:14:51.406Z,18.60
2023-09-27T09:17:26.166Z,18.70
2023-09-27T09:20:16.681Z,18.80
2023-09-27T09:22:47.533Z,18.90
2023-09-27T09:25:15.080Z,19.20
2023-09-27T09:27:45.011Z,19.20
2023-09-27T09:30:13.045Z,19.20
2023-09-27T09:32:53.097Z,18.90
2023-09-27T09:35:31.836Z,19.00
2023-09-27T09:38:00.391Z,19.10
2023-09-27T09:40:27.153Z,19.30
2023-09-27T09:42:54.155Z,19.50
2023-09-27T09:45:21.493Z,19.80
2023-09-27T09:47:48.837Z,19.60
2023-09-27T09:50:20.001Z,19.80
2023-09-27T09:52:58.994Z,19.80
2023-09-27T09:56:01.235Z,19.80
2023-09-27T09:58:29.774Z,20.10
2023-09-27T10:00:59.297Z,20.30
2023-09-27T10:03:35.324Z,20.50
2023-09-27T10:06:03.327Z,20.30
2023-09-27T10:08:36.535Z,20.40
2023-09-27T10:11:07.453Z,20.40
2023-09-27T10:13:37.370Z,20.20
2023-09-27T10:16:05.200Z,20.20
2023-09-27T10:18:36.729Z,20.40
2023-09-27T10:21:04.394Z,20.40
2023-09-27T10:23:47.224Z,20.40
2023-09-27T10:26:30.140Z,20.50
2023-09-27T10:29:07.491Z,20.70
2023-09-27T10:31:58.087Z,20.90
2023-09-27T10:34:30.452Z,21.00
2023-09-27T10:37:17.299Z,21.10
2023-09-27T10:40:23.003Z,21.10
2023-09-27T10:42:50.358Z,21.10
2023-09-27T10:45:18.425Z,21.30
2023-09-27T10:47:47.983Z,21.30
2023-09-27T10:50:17.735Z,21.40
2023-09-27T10:52:44.738Z,21.30
2023-09-27T10:55:15.492Z,21.40
2023-09-27T10:57:43.282Z,21.50
2023-09-27T11:00:13.607Z,21.50
2023-09-27T11:02:42.904Z,21.60
2023-09-27T11:05:10.325Z,21.80
2023-09-27T11:07:51.539Z,22.00
2023-09-27T11:10:32.604Z,21.90
2023-09-27T11:13:14.185Z,21.90
2023-09-27T11:15:43.065Z,21.80
2023-09-27T11:18:11.548Z,22.00
2023-09-27T11:20:40.739Z,22.10
2023-09-27T11:23:08.318Z,22.30
2023-09-27T11:25:37.242Z,22.30
2023-09-27T11:28:04.644Z,22.40
2023-09-27T11:30:33.623Z,22.30
2023-09-27T11:33:06.285Z,22.40
2023-09-27T11:35:34.054Z,22.40
2023-09-27T11:38:10.230Z,22.40
2023-09-27T11:40:39.463Z,22.50
2023-09-27T11:43:07.093Z,22.50
2023-09-27T11:45:50.785Z,22.60
2023-09-27T11:48:31.723Z,22.70
2023-09-27T11:51:01.003Z,22.70
2023-09-27T11:53:28.827Z,22.90
2023-09-27T11:56:00.724Z,22.90
2023-09-27T11:58:27.888Z,23.10
2023-09-27T12:00:54.706Z,23.20
2023-09-27T12:03:22.075Z,23.30
2023-09-27T12:05:49.751Z,23.10
2023-09-27T12:08:16.928Z,23.20
2023-09-27T12:10:43.949Z,23.10
2023-09-27T12:13:10.721Z,23.20
2023-09-27T12:15:37.570Z,23.20
2023-09-27T12:18:05.124Z,23.20
2023-09-27T12:20:40.970Z,23.10
2023-09-27T12:23:11.142Z,23.20
2023-09-27T12:25:38.647Z,23.10
2023-09-27T12:28:06.113Z,23.20
2023-09-27T12:30:32.980Z,23.20
2023-09-27T12:33:00.027Z,23.30
2023-09-27T12:35:27.580Z,23.30
2023-09-27T12:37:54.505Z,23.20
2023-09-27T12:40:21.285Z,23.10
2023-09-27T12:42:48.337Z,23.20
2023-09-27T12:45:15.158Z,23.20
2023-09-27T12:47:42.889Z,23.10
2023-09-27T12:50:10.230Z,23.40
2023-09-27T12:52:37.205Z,23.60
2023-09-27T12:55:06.367Z,23.70
2023-09-27T12:57:33.524Z,24.00
2023-09-27T13:00:00.428Z,23.80
2023-09-27T13:02:28.309Z,23.90
2023-09-27T13:04:55.544Z,23.90
2023-09-27T13:07:22.355Z,23.90
2023-09-27T13:09:50.297Z,23.90
2023-09-27T13:12:17.595Z,23.90
2023-09-27T13:14:44.384Z,23.80
2023-09-27T13:17:11.551Z,23.70
2023-09-27T13:19:38.629Z,23.60
2023-09-27T13:22:05.410Z,23.70
2023-09-27T13:24:32.622Z,23.90
2023-09-27T13:27:00.360Z,24.00
2023-09-27T13:29:27.395Z,23.90
2023-09-27T13:31:54.398Z,24.10
2023-09-27T13:34:21.251Z,24.30
2023-09-27T13:36:47.986Z,24.50
2023-09-27T13:39:15.630Z,24.40
2023-09-27T13:41:42.874Z,24.10
2023-09-27T13:44:10.257Z,23.80
2023-09-27T13:46:37.532Z,23.90
2023-09-27T13:49:04.812Z,24.00
2023-09-27T13:51:35.909Z,24.30
2023-09-27T13:54:07.873Z,24.00
2023-09-27T13:56:35.025Z,23.90
2023-09-27T13:59:01.951Z,24.00
2023-09-27T14:01:29.841Z,24.10
2023-09-27T14:03:58.205Z,23.90
2023-09-27T14:06:25.073Z,23.90
2023-09-27T14:08:52.783Z,23.70
2023-09-27T14:11:21.695Z,23.70
2023-09-27T14:13:48.499Z,23.70
2023-09-27T14:16:18.557Z,23.60
2023-09-27T14:18:46.082Z,23.60
2023-09-27T14:21:15.542Z,23.40
2023-09-27T14:23:50.541Z,23.40
2023-09-27T14:26:20.291Z,23.40
2023-09-27T14:28:47.597Z,23.30
2023-09-27T14:31:17.926Z,23.20
2023-09-27T14:33:45.166Z,23.20
2023-09-27T14:36:13.224Z,23.30
2023-09-27T14:38:40.082Z,23.30
2023-09-27T14:41:10.705Z,23.30
2023-09-27T14:43:38.486Z,23.20
2023-09-27T14:46:11.882Z,23.20
2023-09-27T14:48:39.660Z,23.30
2023-09-27T14:51:10.685Z,23.30
2023-09-27T14:53:38.397Z,23.30
2023-09-27T14:56:13.917Z,23.20
2023-09-27T14:58:41.578Z,23.30
2023-09-27T15:01:09.013Z,23.20
2023-09-27T15:03:36.156Z,23.20
2023-09-27T15:06:07.010Z,23.10
2023-09-27T15:08:34.457Z,23.10
2023-09-27T15:11:01.797Z,22.90
2023-09-27T15:13:28.882Z,22.90
2023-09-27T15:15:56.070Z,22.90
2023-09-27T15:18:25.717Z,22.80
2023-09-27T15:20:53.437Z,22.90
2023-09-27T15:23:20.712Z,22.90
2023-09-27T15:25:49.273Z,23.00
2023-09-27T15:28:16.664Z,23.00
2023-09-27T15:30:43.517Z,23.10
2023-09-27T15:33:10.660Z,23.10
2023-09-27T15:35:39.295Z,23.10
2023-09-27T15:38:06.683Z,23.00
2023-09-27T15:40:34.508Z,23.00
2023-09-27T15:43:01.940Z,22.90
2023-09-27T15:45:30.261Z,22.90
2023-09-27T15:47:57.416Z,22.90
2023-09-27T15:50:24.289Z,22.80
2023-09-27T15:52:51.171Z,22.80
2023-09-27T15:55:18.323Z,22.70
2023-09-27T15:57:45.495Z,22.70
2023-09-27T16:00:13.001Z,22.60
2023-09-27T16:02:40.549Z,22.60
2023-09-27T16:05:12.056Z,22.50
2023-09-27T16:07:40.394Z,22.50
2023-09-27T16:10:12.850Z,22.40
2023-09-27T16:12:42.506Z,22.40
2023-09-27T16:15:09.848Z,22.20
2023-09-27T16:17:39.353Z,22.20
2023-09-27T16:20:08.340Z,22.30
2023-09-27T16:22:36.004Z,22.20
2023-09-27T16:25:06.530Z,22.10
2023-09-27T16:27:33.776Z,22.00
2023-09-27T16:30:00.686Z,22.00
2023-09-27T16:32:28.201Z,21.90
2023-09-27T16:34:55.390Z,21.80
2023-09-27T16:37:22.201Z,21.60
2023-09-27T16:39:49.444Z,21.60
2023-09-27T16:42:16.602Z,21.50
2023-09-27T16:44:43.779Z,21.30
2023-09-27T16:47:10.592Z,21.20
2023-09-27T16:49:37.591Z,21.00
2023-09-27T16:52:04.564Z,20.80
2023-09-27T16:54:31.342Z,20.60
2023-09-27T16:56:58.622Z,20.50
2023-09-27T16:59:25.589Z,20.30
2023-09-27T17:01:52.467Z,20.10
2023-09-27T17:04:19.461Z,19.90
2023-09-27T17:06:46.320Z,19.80
2023-09-27T17:09:15.426Z,19.60
2023-09-27T17:11:42.743Z,19.50
2023-09-27T17:14:09.686Z,19.40
2023-09-27T17:16:36.504Z,19.30
2023-09-27T17:19:03.806Z,19.20
2023-09-27T17:21:30.571Z,19.20
2023-09-27T17:23:57.514Z,19.10
2023-09-27T17:26:24.509Z,19.00
2023-09-27T17:28:52.266Z,18.90
2023-09-27T17:31:19.220Z,18.80
2023-09-27T17:33:46.443Z,18.70
2023-09-27T17:36:15.048Z,18.60
2023-09-27T17:38:43.181Z,18.60
2023-09-27T17:41:10.767Z,18.50
2023-09-27T17:43:37.859Z,18.40
2023-09-27T17:46:24.855Z,18.30
2023-09-27T17:48:52.454Z,18.20
2023-09-27T17:51:22.492Z,18.10
2023-09-27T17:53:49.441Z,18.00
2023-09-27T17:56:16.354Z,18.00
2023-09-27T17:58:43.255Z,17.90
2023-09-27T18:01:10.337Z,17.80
2023-09-27T18:03:39.235Z,17.80
2023-09-27T18:06:11.229Z,17.70
2023-09-27T18:08:39.931Z,17.70
2023-09-27T18:11:11.500Z,17.60
2023-09-27T18:13:39.071Z,17.60
2023-09-27T18:16:16.792Z,17.50
2023-09-27T18:18:49.466Z,17.40
2023-09-27T18:21:18.840Z,17.30
2023-09-27T18:23:45.956Z,17.30
2023-09-27T18:26:13.095Z,17.20
2023-09-27T18:28:40.992Z,17.10
2023-09-27T18:31:08.805Z,17.10
2023-09-27T18:33:36.194Z,17.00
2023-09-27T18:36:04.135Z,17.00
2023-09-27T18:38:31.189Z,17.00
2023-09-27T18:40:58.730Z,16.90
2023-09-27T18:43:25.736Z,16.90
2023-09-27T18:45:52.657Z,16.90
2023-09-27T18:48:20.262Z,16.90
2023-09-27T18:50:50.637Z,16.90
2023-09-27T18:53:18.305Z,16.90
2023-09-27T18:55:48.566Z,16.80
2023-09-27T18:58:15.823Z,16.80
2023-09-27T19:00:46.057Z,16.80
2023-09-27T19:03:15.290Z,16.90
2023-09-27T19:05:42.607Z,16.80
2023-09-27T19:08:09.867Z,16.90
2023-09-27T19:10:40.299Z,16.90
2023-09-27T19:13:07.379Z,16.90
2023-09-27T19:15:34.802Z,16.90
2023-09-27T19:18:02.107Z,17.10
2023-09-27T19:20:30.665Z,17.20
2023-09-27T19:22:58.544Z,17.20
2023-09-27T19:25:25.468Z,18.00
2023-09-27T19:27:52.705Z,18.90
2023-09-27T19:30:19.931Z,19.20
2023-09-27T19:32:46.865Z,19.20
2023-09-27T19:35:15.510Z,19.40
2023-09-27T19:37:43.573Z,19.40
2023-09-27T19:40:11.217Z,19.20
2023-09-27T19:42:38.496Z,19.10
2023-09-27T19:45:06.701Z,19.00
2023-09-27T19:47:36.116Z,18.90
2023-09-27T19:50:04.597Z,19.00
2023-09-27T19:52:31.829Z,19.00
2023-09-27T19:54:59.145Z,19.10
2023-09-27T19:57:26.087Z,19.20
2023-09-27T19:59:53.626Z,19.10
2023-09-27T20:02:20.832Z,19.30
2023-09-27T20:04:48.298Z,19.40
2023-09-27T20:07:15.526Z,19.30
2023-09-27T20:09:43.142Z,19.20
2023-09-27T20:12:09.993Z,18.90
2023-09-27T20:14:37.579Z,18.90
2023-09-27T20:17:04.675Z,19.10
2023-09-27T20:19:31.833Z,18.90
2023-09-27T20:21:58.971Z,19.10
2023-09-27T20:24:26.920Z,19.00
2023-09-27T20:26:54.009Z,19.30
2023-09-27T20:29:22.488Z,19.10
2023-09-27T20:31:50.180Z,19.40
2023-09-27T20:34:17.398Z,19.30
2023-09-27T20:36:45.054Z,19.30
2023-09-27T20:39:12.121Z,19.10
2023-09-27T20:41:39.060Z,19.00
2023-09-27T20:44:06.996Z,19.00
2023-09-27T20:46:33.996Z,19.10
2023-09-27T20:49:01.891Z,19.10
2023-09-27T20:51:28.937Z,19.20
2023-09-27T20:53:55.938Z,19.20
2023-09-27T20:56:23.273Z,19.10
2023-09-27T20:58:50.419Z,19.10
2023-09-27T21:01:45.084Z,19.00
2023-09-27T21:04:12.551Z,19.00
2023-09-27T21:06:39.558Z,19.00
2023-09-27T21:09:06.460Z,18.90
2023-09-27T21:11:33.755Z,19.10
2023-09-27T21:14:02.075Z,19.20
2023-09-27T21:16:32.708Z,19.30
2023-09-27T21:19:02.085Z,19.30
2023-09-27T21:21:30.928Z,19.10
2023-09-27T21:23:58.085Z,18.90
2023-09-27T21:26:25.450Z,18.90
2023-09-27T21:28:52.487Z,18.70
2023-09-27T21:31:19.893Z,18.80
2023-09-27T21:33:47.442Z,18.50
2023-09-27T21:36:15.513Z,18.50
2023-09-27T21:38:42.655Z,18.40
2023-09-27T21:41:09.921Z,18.20
2023-09-27T21:43:37.140Z,17.90
2023-09-27T21:46:18.531Z,17.70
2023-09-27T21:48:47.023Z,17.60
2023-09-27T21:51:15.604Z,17.60
2023-09-27T21:53:42.794Z,17.60
2023-09-27T21:56:11.035Z,17.50
2023-09-27T21:58:38.313Z,17.40
2023-09-27T22:01:11.378Z,17.40
2023-09-27T22:03:38.771Z,17.60
2023-09-27T22:06:10.039Z,17.50
2023-09-27T22:08:37.172Z,17.80
2023-09-27T22:11:06.804Z,18.00
2023-09-27T22:13:39.505Z,18.00
2023-09-27T22:16:11.811Z,17.70
2023-09-27T22:18:43.125Z,17.50
2023-09-27T22:21:18.691Z,17.50
2023-09-27T22:23:47.701Z,17.40
2023-09-27T22:26:19.208Z,17.40
2023-09-27T22:28:47.257Z,17.60
2023-09-27T22:31:16.283Z,17.50
2023-09-27T22:33:44.981Z,17.70
2023-09-27T22:36:13.023Z,17.70
2023-09-27T22:38:40.926Z,17.60
2023-09-27T22:41:28.125Z,17.40
2023-09-27T22:43:55.215Z,17.60
2023-09-27T22:46:22.217Z,17.60
2023-09-27T22:48:51.693Z,17.50
2023-09-27T22:51:20.178Z,17.40
2023-09-27T22:53:47.117Z,17.30
2023-09-27T22:56:14.239Z,17.20
2023-09-27T22:58:41.012Z,17.30
2023-09-27T23:01:43.627Z,17.20
2023-09-27T23:04:15.307Z,17.30
2023-09-27T23:06:47.064Z,17.10
2023-09-27T23:09:22.007Z,17.00
2023-09-27T23:12:12.105Z,17.10
2023-09-27T23:14:59.597Z,17.20
2023-09-27T23:17:31.984Z,17.10
2023-09-27T23:19:58.937Z,17.10
2023-09-27T23:22:26.592Z,17.10
2023-09-27T23:25:12.174Z,17.10
2023-09-27T23:27:38.987Z,17.20
2023-09-27T23:30:14.004Z,17.10
2023-09-27T23:32:41.301Z,17.10
2023-09-27T23:35:10.665Z,17.20
2023-09-27T23:37:38.217Z,17.10
2023-09-27T23:40:14.756Z,17.20
2023-09-27T23:42:48.314Z,17.30
2023-09-27T23:45:15.361Z,17.20
2023-09-27T23:47:51.214Z,17.10
2023-09-27T23:50:18.658Z,17.20
2023-09-27T23:52:47.228Z,17.20
2023-09-27T23:55:16.714Z,17.10
2023-09-27T23:57:48.020Z,17.10
